OEXDW FSIA-FSIA
Flight info
| Callsign | OEXDW |
|---|---|
| Flight time | 0h 2m |
| Altitude | 2500 |
| Route | LOCAL FLIGHT |
| Aircraft | AS50/L-VGDW/C |
Departure
| Time | 2026-05-06 19:31 |
|---|---|
| Airport | Seychelles International Airport (FSIA) |
Arrival
| Time | 2026-05-06 19:33 |
|---|---|
| Airport | Seychelles International Airport (FSIA) |
| Time | Latitude | Longitude | Altitude | Speed | Heading |
|---|---|---|---|---|---|
| 2026-05-06 19:27 | -4.66762 | 55.50934 | 13 ft | 0 kts | 29° |
| 2026-05-06 19:31 | -4.66622 | 55.50910 | 147 ft | 57 kts | 9° |
| 2026-05-06 19:31 | -4.66122 | 55.50942 | 475 ft | 84 kts | 12° |
| 2026-05-06 19:31 | -4.64657 | 55.51041 | 788 ft | 121 kts | 10° |
| 2026-05-06 19:32 | -4.63799 | 55.51100 | 870 ft | 124 kts | 5° |
| 2026-05-06 19:32 | -4.62919 | 55.51095 | 918 ft | 124 kts | 6° |
| 2026-05-06 19:32 | -4.62069 | 55.51164 | 1051 ft | 119 kts | 9° |
| 2026-05-06 19:32 | -4.61259 | 55.51315 | 1022 ft | 117 kts | 24° |
| 2026-05-06 19:33 | -4.60494 | 55.51520 | 887 ft | 116 kts | 14° |
| 2026-05-06 19:33 | -4.59661 | 55.51585 | 369 ft | 119 kts | 9° |
| 2026-05-06 19:33 | -4.59239 | 55.51859 | 292 ft | 61 kts | 112° |
| 2026-05-06 19:33 | -4.59414 | 55.51978 | 135 ft | 16 kts | 244° |
| 2026-05-06 19:34 | -4.59423 | 55.51872 | 37 ft | 6 kts | 269° |
| 2026-05-06 19:34 | -4.59420 | 55.51840 | 29 ft | 2 kts | 276° |
| 2026-05-06 19:34 | -4.59417 | 55.51836 | 22 ft | 0 kts | 275° |
| 2026-05-06 19:36 | -4.59418 | 55.51836 | 22 ft | 1 kts | 276° |
| 2026-05-06 19:36 | -4.59418 | 55.51835 | 22 ft | 0 kts | 277° |
| 2026-05-06 19:37 | -4.59419 | 55.51835 | 24 ft | 1 kts | 264° |
| 2026-05-06 19:37 | -4.59360 | 55.51840 | 125 ft | 35 kts | 348° |
| 2026-05-06 19:37 | -4.58996 | 55.51767 | 372 ft | 63 kts | 17° |
| 2026-05-06 19:37 | -4.58531 | 55.51847 | 737 ft | 66 kts | 9° |
| 2026-05-06 19:38 | -4.58200 | 55.51416 | 906 ft | 95 kts | 299° |
| 2026-05-06 19:38 | -4.57837 | 55.50879 | 1198 ft | 95 kts | 315° |
| 2026-05-06 19:38 | -4.57228 | 55.50443 | 1266 ft | 106 kts | 341° |
| 2026-05-06 19:38 | -4.56477 | 55.50383 | 1280 ft | 120 kts | 0° |
| 2026-05-06 19:39 | -4.55591 | 55.50211 | 1046 ft | 138 kts | 351° |
| 2026-05-06 19:39 | -4.54671 | 55.50062 | 1086 ft | 130 kts | 355° |
| 2026-05-06 19:39 | -4.53792 | 55.49874 | 1199 ft | 132 kts | 349° |
| 2026-05-06 19:39 | -4.52856 | 55.49645 | 1074 ft | 143 kts | 351° |
| 2026-05-06 19:40 | -4.51857 | 55.49467 | 960 ft | 145 kts | 352° |
| 2026-05-06 19:40 | -4.50870 | 55.49163 | 794 ft | 150 kts | 345° |
| 2026-05-06 19:40 | -4.49899 | 55.48914 | 818 ft | 143 kts | 349° |
| 2026-05-06 19:40 | -4.48888 | 55.48680 | 539 ft | 152 kts | 349° |
| 2026-05-06 19:41 | -4.47919 | 55.48608 | 725 ft | 130 kts | 6° |
| 2026-05-06 19:41 | -4.46958 | 55.48555 | 462 ft | 150 kts | 358° |
| 2026-05-06 19:41 | -4.45980 | 55.48547 | 717 ft | 121 kts | 5° |
| 2026-05-06 19:41 | -4.45147 | 55.48531 | 780 ft | 133 kts | 3° |
| 2026-05-06 19:42 | -4.44286 | 55.48632 | 1065 ft | 115 kts | 12° |
| 2026-05-06 19:42 | -4.43543 | 55.48718 | 1448 ft | 106 kts | 7° |
| 2026-05-06 19:42 | -4.42768 | 55.48762 | 1638 ft | 115 kts | 2° |
| 2026-05-06 19:42 | -4.41919 | 55.48718 | 1617 ft | 133 kts | 1° |
| 2026-05-06 19:43 | -4.40930 | 55.48656 | 1294 ft | 147 kts | 1° |
| 2026-05-06 19:43 | -4.39911 | 55.48658 | 948 ft | 144 kts | 8° |
| 2026-05-06 19:43 | -4.38931 | 55.48736 | 663 ft | 133 kts | 8° |
| 2026-05-06 19:43 | -4.38075 | 55.48777 | 357 ft | 117 kts | 12° |
| 2026-05-06 19:44 | -4.37351 | 55.48832 | 126 ft | 86 kts | 8° |
| 2026-05-06 19:44 | -4.36906 | 55.48781 | 62 ft | 35 kts | 14° |
| 2026-05-06 19:44 | -4.36947 | 55.48845 | 184 ft | 22 kts | 244° |
| 2026-05-06 19:44 | -4.36947 | 55.48774 | 115 ft | 22 kts | 186° |
| 2026-05-06 19:45 | -4.37104 | 55.48732 | 88 ft | 22 kts | 187° |
| 2026-05-06 19:45 | -4.37245 | 55.48706 | 65 ft | 19 kts | 192° |
| 2026-05-06 19:45 | -4.37377 | 55.48679 | 65 ft | 19 kts | 190° |
| 2026-05-06 19:45 | -4.37510 | 55.48655 | 81 ft | 19 kts | 148° |
| 2026-05-06 19:46 | -4.37397 | 55.48747 | 184 ft | 41 kts | 347° |
| 2026-05-06 19:46 | -4.37374 | 55.48564 | 236 ft | 38 kts | 144° |
| 2026-05-06 19:46 | -4.37684 | 55.48470 | 403 ft | 66 kts | 231° |
| 2026-05-06 19:46 | -4.38179 | 55.48204 | 346 ft | 80 kts | 187° |
| 2026-05-06 19:47 | -4.38636 | 55.48057 | 342 ft | 61 kts | 196° |
| 2026-05-06 19:47 | -4.39100 | 55.47936 | 346 ft | 75 kts | 197° |
| 2026-05-06 19:47 | -4.39512 | 55.47674 | 340 ft | 60 kts | 243° |
| 2026-05-06 19:47 | -4.39557 | 55.47343 | 367 ft | 60 kts | 293° |
| 2026-05-06 19:48 | -4.39366 | 55.46824 | 458 ft | 94 kts | 294° |
| 2026-05-06 19:48 | -4.39095 | 55.46120 | 318 ft | 122 kts | 293° |
| 2026-05-06 19:48 | -4.38799 | 55.45291 | 257 ft | 126 kts | 290° |
| 2026-05-06 19:48 | -4.38619 | 55.44448 | 256 ft | 124 kts | 280° |
| 2026-05-06 19:49 | -4.38471 | 55.43585 | 170 ft | 125 kts | 279° |
| 2026-05-06 19:49 | -4.38336 | 55.42762 | 227 ft | 110 kts | 282° |
| 2026-05-06 19:49 | -4.38211 | 55.42057 | 315 ft | 94 kts | 280° |
| 2026-05-06 19:49 | -4.38186 | 55.41468 | 318 ft | 77 kts | 268° |
| 2026-05-06 19:50 | -4.38232 | 55.40978 | 287 ft | 63 kts | 263° |
| 2026-05-06 19:50 | -4.38296 | 55.40600 | 217 ft | 50 kts | 309° |
| 2026-05-06 19:50 | -4.38244 | 55.40371 | 260 ft | 30 kts | 34° |
| 2026-05-06 19:50 | -4.38012 | 55.40411 | 327 ft | 32 kts | 116° |
| 2026-05-06 19:51 | -4.38054 | 55.40606 | 300 ft | 32 kts | 192° |
| 2026-05-06 19:51 | -4.38154 | 55.40568 | 225 ft | 33 kts | 271° |
| 2026-05-06 19:51 | -4.38230 | 55.40252 | 207 ft | 55 kts | 284° |
| 2026-05-06 19:51 | -4.38123 | 55.39920 | 260 ft | 39 kts | 341° |
| 2026-05-06 19:52 | -4.37908 | 55.39873 | 173 ft | 37 kts | 41° |
| 2026-05-06 19:52 | -4.37761 | 55.40047 | 100 ft | 26 kts | 49° |
| 2026-05-06 19:52 | -4.37636 | 55.40188 | 49 ft | 25 kts | 50° |
| 2026-05-06 19:52 | -4.37537 | 55.40310 | 28 ft | 24 kts | 56° |
| 2026-05-06 19:53 | -4.37447 | 55.40423 | 20 ft | 20 kts | 54° |
| 2026-05-06 19:53 | -4.37359 | 55.40524 | 19 ft | 19 kts | 50° |
| 2026-05-06 19:53 | -4.37274 | 55.40612 | 19 ft | 19 kts | 53° |
| 2026-05-06 19:53 | -4.37349 | 55.40665 | 106 ft | 38 kts | 156° |
| 2026-05-06 19:54 | -4.37720 | 55.40710 | 323 ft | 69 kts | 158° |
| 2026-05-06 19:54 | -4.38366 | 55.40823 | 319 ft | 111 kts | 165° |
| 2026-05-06 19:54 | -4.39193 | 55.40934 | 330 ft | 123 kts | 175° |
| 2026-05-06 19:54 | -4.40040 | 55.40878 | 485 ft | 117 kts | 178° |
| 2026-05-06 19:55 | -4.40818 | 55.40855 | 723 ft | 111 kts | 176° |
| 2026-05-06 19:55 | -4.41562 | 55.40908 | 1047 ft | 102 kts | 168° |
| 2026-05-06 19:55 | -4.42274 | 55.40925 | 1341 ft | 101 kts | 175° |
| 2026-05-06 19:55 | -4.43046 | 55.40895 | 1291 ft | 126 kts | 180° |
| 2026-05-06 19:56 | -4.43928 | 55.40904 | 1352 ft | 122 kts | 172° |
| 2026-05-06 19:56 | -4.44745 | 55.40976 | 1627 ft | 109 kts | 172° |
| 2026-05-06 19:56 | -4.45436 | 55.41024 | 1985 ft | 99 kts | 170° |
| 2026-05-06 19:56 | -4.46205 | 55.40857 | 2008 ft | 118 kts | 191° |
| 2026-05-06 19:57 | -4.47002 | 55.40773 | 2220 ft | 112 kts | 177° |
| 2026-05-06 19:57 | -4.47766 | 55.40679 | 2446 ft | 111 kts | 190° |
| 2026-05-06 19:57 | -4.48509 | 55.40558 | 2650 ft | 111 kts | 177° |
| 2026-05-06 19:57 | -4.49332 | 55.40547 | 2705 ft | 119 kts | 176° |
| 2026-05-06 19:58 | -4.50171 | 55.40573 | 2754 ft | 123 kts | 174° |
| 2026-05-06 19:58 | -4.51086 | 55.40684 | 2598 ft | 132 kts | 169° |
| 2026-05-06 19:58 | -4.51932 | 55.40881 | 2713 ft | 124 kts | 161° |
| 2026-05-06 19:58 | -4.52782 | 55.41076 | 2798 ft | 120 kts | 166° |
| 2026-05-06 19:59 | -4.53582 | 55.41223 | 2996 ft | 113 kts | 163° |
| 2026-05-06 19:59 | -4.54360 | 55.41431 | 3043 ft | 121 kts | 160° |
| 2026-05-06 19:59 | -4.55143 | 55.41755 | 3051 ft | 124 kts | 148° |
| 2026-05-06 19:59 | -4.55794 | 55.42332 | 2886 ft | 125 kts | 129° |
| 2026-05-06 20:00 | -4.56180 | 55.43070 | 2578 ft | 116 kts | 114° |
| 2026-05-06 20:00 | -4.56495 | 55.43784 | 2325 ft | 109 kts | 120° |
| 2026-05-06 20:00 | -4.56968 | 55.44374 | 2033 ft | 107 kts | 140° |
| 2026-05-06 20:00 | -4.57625 | 55.44392 | 1816 ft | 108 kts | 201° |
| 2026-05-06 20:01 | -4.58361 | 55.44414 | 1212 ft | 114 kts | 157° |
| 2026-05-06 20:01 | -4.58976 | 55.44380 | 1118 ft | 90 kts | 225° |
| 2026-05-06 20:01 | -4.59145 | 55.44002 | 1129 ft | 24 kts | 8° |
| 2026-05-06 20:01 | -4.58941 | 55.44016 | 1051 ft | 42 kts | 33° |
| 2026-05-06 20:02 | -4.58636 | 55.44146 | 965 ft | 39 kts | 24° |
| 2026-05-06 20:02 | -4.58562 | 55.44229 | 802 ft | 10 kts | 12° |
| 2026-05-06 20:02 | -4.58517 | 55.44260 | 733 ft | 1 kts | 357° |
| 2026-05-06 20:02 | -4.58524 | 55.44261 | 726 ft | 0 kts | 359° |
| 2026-05-06 20:03 | -4.58516 | 55.44272 | 946 ft | 24 kts | 118° |
| 2026-05-06 20:04 | -4.58768 | 55.44591 | 941 ft | 92 kts | 123° |
| 2026-05-06 20:04 | -4.59233 | 55.45197 | 776 ft | 122 kts | 129° |
| 2026-05-06 20:04 | -4.59911 | 55.45767 | 542 ft | 130 kts | 150° |
| 2026-05-06 20:04 | -4.60698 | 55.46158 | 371 ft | 123 kts | 155° |
| 2026-05-06 20:05 | -4.61402 | 55.46481 | 209 ft | 88 kts | 153° |
| 2026-05-06 20:05 | -4.61498 | 55.46748 | 125 ft | 40 kts | 21° |
| 2026-05-06 20:05 | -4.61364 | 55.46830 | 31 ft | 10 kts | 323° |
| 2026-05-06 20:05 | -4.61337 | 55.46816 | 12 ft | 0 kts | 313° |
| 2026-05-06 20:07 | -4.61337 | 55.46815 | 16 ft | 3 kts | 311° |
| 2026-05-06 20:07 | -4.61334 | 55.46807 | 72 ft | 2 kts | 319° |
| 2026-05-06 20:07 | -4.61361 | 55.46827 | 198 ft | 14 kts | 345° |
| 2026-05-06 20:08 | -4.61370 | 55.46864 | 354 ft | 12 kts | 6° |
| 2026-05-06 20:08 | -4.61309 | 55.46815 | 505 ft | 13 kts | 28° |
| 2026-05-06 20:08 | -4.61115 | 55.46875 | 733 ft | 58 kts | 17° |
| 2026-05-06 20:08 | -4.60571 | 55.46940 | 829 ft | 98 kts | 1° |
| 2026-05-06 20:09 | -4.59955 | 55.46668 | 1006 ft | 102 kts | 323° |
| 2026-05-06 20:09 | -4.59461 | 55.46111 | 1023 ft | 113 kts | 305° |
| 2026-05-06 20:09 | -4.59148 | 55.45395 | 1108 ft | 104 kts | 280° |
| 2026-05-06 20:09 | -4.59149 | 55.44746 | 1208 ft | 85 kts | 266° |
| 2026-05-06 20:10 | -4.59115 | 55.44202 | 1208 ft | 54 kts | 317° |
| 2026-05-06 20:10 | -4.58845 | 55.44178 | 1098 ft | 39 kts | 1° |
| 2026-05-06 20:10 | -4.58629 | 55.44226 | 985 ft | 25 kts | 355° |
| 2026-05-06 20:10 | -4.58527 | 55.44256 | 844 ft | 6 kts | 354° |
| 2026-05-06 20:11 | -4.58508 | 55.44263 | 822 ft | 8 kts | 349° |
| 2026-05-06 20:11 | -4.58744 | 55.44322 | 925 ft | 69 kts | 137° |
| 2026-05-06 20:11 | -4.59053 | 55.44848 | 829 ft | 100 kts | 116° |
| 2026-05-06 20:11 | -4.59567 | 55.45355 | 777 ft | 110 kts | 145° |
| 2026-05-06 20:12 | -4.60249 | 55.45752 | 605 ft | 114 kts | 148° |
| 2026-05-06 20:12 | -4.60919 | 55.46159 | 369 ft | 105 kts | 147° |
| 2026-05-06 20:12 | -4.61420 | 55.46515 | 243 ft | 71 kts | 137° |
| 2026-05-06 20:12 | -4.61435 | 55.46817 | 138 ft | 41 kts | 18° |
| 2026-05-06 20:13 | -4.61333 | 55.46827 | 82 ft | 5 kts | 287° |
| 2026-05-06 20:13 | -4.61360 | 55.46825 | 143 ft | 13 kts | 324° |
| 2026-05-06 20:13 | -4.61301 | 55.46900 | 377 ft | 37 kts | 13° |
| 2026-05-06 20:13 | -4.60921 | 55.46992 | 588 ft | 74 kts | 10° |
| 2026-05-06 20:14 | -4.60316 | 55.46895 | 654 ft | 97 kts | 338° |
| 2026-05-06 20:14 | -4.59831 | 55.46474 | 881 ft | 94 kts | 307° |
| 2026-05-06 20:14 | -4.59485 | 55.45889 | 1024 ft | 98 kts | 294° |
| 2026-05-06 20:14 | -4.59221 | 55.45229 | 1064 ft | 106 kts | 287° |
| 2026-05-06 20:15 | -4.59095 | 55.44539 | 1047 ft | 93 kts | 274° |
| 2026-05-06 20:15 | -4.58953 | 55.44096 | 1069 ft | 39 kts | 6° |
| 2026-05-06 20:15 | -4.58734 | 55.44176 | 977 ft | 22 kts | 353° |
| 2026-05-06 20:15 | -4.58597 | 55.44230 | 914 ft | 18 kts | 357° |
| 2026-05-06 20:16 | -4.58514 | 55.44259 | 840 ft | 8 kts | 2° |
| 2026-05-06 20:16 | -4.58501 | 55.44266 | 811 ft | 1 kts | 352° |
| 2026-05-06 20:16 | -4.58504 | 55.44267 | 807 ft | 4 kts | 355° |
| 2026-05-06 20:16 | -4.58513 | 55.44260 | 816 ft | 1 kts | 355° |
| 2026-05-06 20:17 | -4.58571 | 55.44255 | 881 ft | 39 kts | 159° |
| 2026-05-06 20:17 | -4.58836 | 55.44513 | 998 ft | 88 kts | 117° |
| 2026-05-06 20:17 | -4.59209 | 55.45139 | 838 ft | 120 kts | 125° |
| 2026-05-06 20:17 | -4.59910 | 55.45667 | 637 ft | 128 kts | 148° |
| 2026-05-06 20:18 | -4.60689 | 55.46093 | 450 ft | 124 kts | 150° |
| 2026-05-06 20:18 | -4.61358 | 55.46482 | 261 ft | 92 kts | 149° |
| 2026-05-06 20:18 | -4.61684 | 55.46818 | 275 ft | 39 kts | 61° |
| 2026-05-06 20:18 | -4.61433 | 55.46825 | 131 ft | 34 kts | 329° |
| 2026-05-06 20:19 | -4.61333 | 55.46811 | 69 ft | 2 kts | 298° |
| 2026-05-06 20:19 | -4.61336 | 55.46806 | 80 ft | 4 kts | 309° |
| 2026-05-06 20:19 | -4.61350 | 55.46851 | 236 ft | 15 kts | 18° |
| 2026-05-06 20:19 | -4.61178 | 55.46935 | 460 ft | 48 kts | 20° |
| 2026-05-06 20:20 | -4.60815 | 55.47000 | 794 ft | 59 kts | 357° |
| 2026-05-06 20:20 | -4.60344 | 55.46832 | 940 ft | 85 kts | 326° |
| 2026-05-06 20:20 | -4.59858 | 55.46358 | 923 ft | 103 kts | 308° |
| 2026-05-06 20:20 | -4.59456 | 55.45760 | 925 ft | 107 kts | 299° |
| 2026-05-06 20:21 | -4.59182 | 55.45070 | 940 ft | 100 kts | 288° |
| 2026-05-06 20:21 | -4.59086 | 55.44463 | 955 ft | 78 kts | 272° |
| 2026-05-06 20:21 | -4.58964 | 55.44126 | 989 ft | 38 kts | 7° |
| 2026-05-06 20:21 | -4.58769 | 55.44180 | 977 ft | 20 kts | 355° |
| 2026-05-06 20:22 | -4.58640 | 55.44222 | 954 ft | 19 kts | 356° |
| 2026-05-06 20:22 | -4.58536 | 55.44259 | 844 ft | 11 kts | 345° |
| 2026-05-06 20:22 | -4.58513 | 55.44268 | 831 ft | 9 kts | 324° |
| 2026-05-06 20:22 | -4.58839 | 55.44414 | 860 ft | 90 kts | 122° |
| 2026-05-06 20:23 | -4.59074 | 55.45123 | 776 ft | 113 kts | 108° |
| 2026-05-06 20:23 | -4.59603 | 55.45769 | 455 ft | 132 kts | 146° |
| 2026-05-06 20:23 | -4.60388 | 55.46123 | 307 ft | 113 kts | 167° |
| 2026-05-06 20:23 | -4.60991 | 55.46286 | 277 ft | 66 kts | 165° |
| 2026-05-06 20:24 | -4.61320 | 55.46466 | 211 ft | 43 kts | 140° |
| 2026-05-06 20:24 | -4.61425 | 55.46690 | 104 ft | 30 kts | 98° |
| 2026-05-06 20:24 | -4.61384 | 55.46798 | 33 ft | 6 kts | 8° |
| 2026-05-06 20:24 | -4.61346 | 55.46817 | 22 ft | 3 kts | 323° |
| 2026-05-06 20:25 | -4.61337 | 55.46819 | 12 ft | 0 kts | 302° |
| 2026-05-06 20:26 | -4.61432 | 55.46905 | 206 ft | 36 kts | 189° |
| 2026-05-06 20:27 | -4.61913 | 55.47179 | 167 ft | 107 kts | 154° |
| 2026-05-06 20:27 | -4.62647 | 55.47542 | 182 ft | 124 kts | 159° |
| 2026-05-06 20:27 | -4.63422 | 55.47971 | 198 ft | 127 kts | 145° |
| 2026-05-06 20:27 | -4.64107 | 55.48528 | 285 ft | 124 kts | 141° |
| 2026-05-06 20:28 | -4.64764 | 55.49079 | 337 ft | 126 kts | 138° |
| 2026-05-06 20:28 | -4.65421 | 55.49690 | 325 ft | 127 kts | 137° |
| 2026-05-06 20:28 | -4.66052 | 55.50266 | 247 ft | 113 kts | 143° |
| 2026-05-06 20:28 | -4.66575 | 55.50666 | 151 ft | 70 kts | 146° |
| 2026-05-06 20:29 | -4.66755 | 55.50858 | 41 ft | 7 kts | 58° |
| 2026-05-06 20:29 | -4.66749 | 55.50905 | 15 ft | 2 kts | 29° |
| 2026-05-06 20:29 | -4.66748 | 55.50905 | 13 ft | 0 kts | 25° |